Flight Track Log - Related Links

Times and Time Zones

All times are in EDT time to prevent confusion due to time zone crossing. See the UAL5862 flight status page for this flight to view local times or setup timezone preferences in your user account.

Time Position Orientation Groundspeed Altitude Reporting Facility
EDT Latitude Longitude Course Direction KTS MPH feet Rate Location/Type
Wed 03:09:53 PM 41.9667 -87.8333 90° East 188 216 3,100  Level Chicago TRACON
Wed 03:10:49 PM 41.9017 -87.8275 176° South 233 268 4,700 1,729 Climbing Chicago Center
Wed 03:11:51 PM 41.8292 -87.8272 180° South 257 296 6,500 2,177 Climbing Chicago Center
Wed 03:12:53 PM 41.7547 -87.8064 168° South 280 322 9,200 2,613 Climbing Chicago Center
Wed 03:13:00 PM 41.4309 -87.5738 159° South  Level FlightAware Approximate
Wed 03:13:55 PM 41.6775 -87.7542 153° Southeast 290 334 11,900  Level Chicago Center
Wed 03:14:00 PM 41.3141 -87.5449 174° South  Level FlightAware Approximate
Wed 03:14:57 PM 41.6022 -87.7006 152° Southeast 301 346 13,900  Level Chicago Center
Wed 03:15:00 PM 41.2000 -87.5267 90° East  Level FlightAware Approximate
Wed 03:15:59 PM 41.5239 -87.6442 152° Southeast 314 361 15,500  Level Chicago Center
Wed 03:17:01 PM 41.4286 -87.5769 152° Southeast 360 414 16,500 1,065 Climbing Chicago Center
Wed 03:18:03 PM 41.3239 -87.5542 171° South 376 433 17,700 1,355 Climbing Chicago Center
Wed 03:19:05 PM 41.2278 -87.5389 173° South 377 434 19,300 1,452 Climbing Chicago Center
Wed 03:20:07 PM 41.1233 -87.5131 169° South 377 434 20,700 1,452 Climbing Chicago Center
Wed 03:21:09 PM 41.0497 -87.3775 126° Southeast 387 445 22,300 1,296 Climbing Chicago Center
Wed 03:22:12 PM 41.0033 -87.2453 115° Southeast 392 451 23,400 1,296 Climbing Chicago Center
Wed 03:23:14 PM 40.9539 -87.1114 116° Southeast 403 464 25,000 1,742 Climbing Chicago Center
Wed 03:24:16 PM 40.9067 -86.9822 116° Southeast 395 455 27,000 1,839 Climbing Chicago Center
Wed 03:25:18 PM 40.8661 -86.8583 113° Southeast 372 428 28,800 1,452 Climbing Chicago Center
Wed 03:26:20 PM 40.7794 -86.7467 136° Southeast 363 418 30,000 677 Climbing Chicago Center
Wed 03:27:22 PM 40.7136 -86.6661 137° Southeast 379 436 30,200 484 Climbing Chicago Center
Wed 03:28:24 PM 40.6261 -86.5631 138° Southeast 392 451 31,000 387 Climbing Chicago Center
Wed 03:29:26 PM 40.5375 -86.4597 138° Southeast 420 483 31,000  Level Chicago Center
Wed 03:30:28 PM 40.4211 -86.3389 142° Southeast 443 510 31,000 484 Level Chicago Center
Wed 03:31:30 PM 40.3489 -86.2022 125° Southeast 462 532 32,000 1,086 Climbing Chicago Center
Wed 03:32:13 PM 40.3231 -86.1078 110° East 457 526 32,900 1,371 Climbing Indianapolis Center
Wed 03:33:15 PM 40.2800 -85.9528 110° East 456 525 34,400 1,016 Climbing Indianapolis Center
Wed 03:34:17 PM 40.2386 -85.8022 110° East 444 511 35,000 290 Climbing Indianapolis Center
Wed 03:35:19 PM 40.1869 -85.6125 110° East 457 526 35,000  Level Indianapolis Center
Wed 03:36:21 PM 40.1400 -85.4469 110° East 477 549 35,000  Level Indianapolis Center
Wed 03:37:23 PM 40.0933 -85.2794 110° East 485 558 35,000  Level Indianapolis Center
Wed 03:38:25 PM 40.0256 -85.1272 120° Southeast 485 558 35,000  Level Indianapolis Center
Wed 03:39:27 PM 39.9594 -84.9761 120° Southeast 485 558 35,000  Level Indianapolis Center
Wed 03:40:28 PM 39.8811 -84.8164 123° Southeast 476 548 35,000  Level Indianapolis Center
Wed 03:41:30 PM 39.8125 -84.6733 122° Southeast 475 547 35,000  Level Indianapolis Center
Wed 03:42:32 PM 39.7442 -84.5322 122° Southeast 470 541 35,000  Level Indianapolis Center
Wed 03:43:34 PM 39.6758 -84.3911 122° Southeast 468 539 35,000  Level Indianapolis Center
Wed 03:44:36 PM 39.5944 -84.2244 122° Southeast 462 532 35,000  Level Indianapolis Center
Wed 03:45:38 PM 39.5256 -84.0836 122° Southeast 462 532 35,000  Level Indianapolis Center
Wed 03:46:40 PM 39.4558 -83.9411 122° Southeast 467 537 35,000  Level Indianapolis Center
Wed 03:47:42 PM 39.3842 -83.7975 123° Southeast 475 547 35,000  Level Indianapolis Center
Wed 03:48:44 PM 39.3139 -83.6558 123° Southeast 475 547 35,000  Level Indianapolis Center
Wed 03:49:46 PM 39.2297 -83.4850 122° Southeast 475 547 35,000  Level Indianapolis Center
Wed 03:50:48 PM 39.1586 -83.3439 123° Southeast 474 545 35,000  Level Indianapolis Center
Wed 03:52:52 PM 39.0225 -83.0714 125° Southeast 474 545 35,000  Level Indianapolis Center
Wed 03:53:54 PM 38.9350 -82.9017 123° Southeast 476 548 35,000  Level Indianapolis Center
Wed 03:54:56 PM 38.8628 -82.7586 123° Southeast 477 549 35,000  Level Indianapolis Center
Wed 03:55:58 PM 38.7897 -82.6150 123° Southeast 478 550 35,000  Level Indianapolis Center
Wed 03:57:00 PM 38.7153 -82.4725 124° Southeast 479 551 35,000  Level Indianapolis Center
Wed 03:58:02 PM 38.6428 -82.3297 123° Southeast 479 551 35,000  Level Indianapolis Center
Wed 03:59:04 PM 38.5536 -82.1597 124° Southeast 480 552 35,000  Level Indianapolis Center
Wed 04:01:08 PM 38.4058 -81.8781 124° Southeast 480 552 35,000  Level Indianapolis Center
Wed 04:02:10 PM 38.3442 -81.7292 118° Southeast 483 556 35,000  Level Indianapolis Center
Wed 04:03:12 PM 38.3169 -81.5661 102° East 482 555 35,000  Level Indianapolis Center
Wed 04:04:14 PM 38.2858 -81.3697 101° East 480 552 35,000 -871 Level Indianapolis Center
Wed 04:05:16 PM 38.2600 -81.2053 101° East 479 551 33,200 -1,742 Descending Indianapolis Center
Wed 04:06:18 PM 38.2319 -81.0403 102° East 479 551 31,400 -1,694 Descending Indianapolis Center
Wed 04:07:20 PM 38.2047 -80.8725 102° East 482 555 29,700 -1,161 Descending Indianapolis Center
Wed 04:08:22 PM 38.1783 -80.7061 101° East 483 556 29,000 -438 Descending Indianapolis Center
Wed 04:08:56 PM 38.1583 -80.5989 103° East 478 550 29,000 -326 Level Washington Center
Wed 04:09:54 PM 38.1319 -80.4333 101° East 472 543 28,500 -857 Descending Washington Center
Wed 04:10:55 PM 38.1067 -80.2814 102° East 472 543 27,300 -1,525 Descending Washington Center
Wed 04:11:56 PM 38.0775 -80.1158 103° East 472 543 25,400 -1,900 Descending Washington Center
Wed 04:12:55 PM 38.0522 -79.9561 101° East 467 537 23,500 -1,900 Descending Washington Center
Wed 04:13:56 PM 38.0244 -79.7989 103° East 461 531 21,600 -1,250 Descending Washington Center
Wed 04:14:55 PM 37.9947 -79.6314 103° East 450 518 21,000 -305 Descending Washington Center
Wed 04:15:54 PM 37.9686 -79.4769 102° East 450 518 21,000  Level Washington Center
Wed 04:16:54 PM 37.9422 -79.3231 102° East 450 518 21,000  Level Washington Center
Wed 04:17:55 PM 37.9136 -79.1689 103° East 450 518 21,000 -98 Level Washington Center
Wed 04:18:56 PM 37.8783 -79.0172 106° East 450 518 20,800 -787 Descending Washington Center
Wed 04:19:57 PM 37.8403 -78.8892 111° Southeast 444 511 19,400 -1,678 Descending Washington Center
Wed 04:20:54 PM 37.8086 -78.7433 105° East 437 503 17,500 -1,831 Descending Washington Center
Wed 04:21:55 PM 37.8208 -78.5967 84° East 412 474 15,800 -1,475 Descending Washington Center
Wed 04:22:56 PM 37.8344 -78.4578 83° East 400 460 14,500 -1,261 Descending Washington Center
Wed 04:23:54 PM 37.8528 -78.3006 82° East 410 472 13,300 -1,150 Descending Washington Center
Wed 04:24:56 PM 37.8678 -78.1881 80° East 405 466 12,200 -1,150 Descending Washington Center
Wed 04:25:54 PM 37.8417 -78.0453 103° East 388 447 11,000 -1,109 Descending Washington Center
Wed 04:26:55 PM 37.7325 -77.9708 152° Southeast 354 407 10,000 -639 Descending Washington Center
Wed 04:27:56 PM 37.6544 -77.9158 151° Southeast 347 399 9,700 -756 Descending Washington Center
Wed 04:28:54 PM 37.5825 -77.8586 148° Southeast 323 372 8,500 -1,412 Descending Washington Center
Wed 04:29:55 PM 37.5467 -77.7686 117° Southeast 284 327 6,900 -1,686 Descending Washington Center
Wed 04:30:55 PM 37.5169 -77.6786 113° Southeast 284 327 5,100 -1,736 Descending Washington Center
Wed 04:31:56 PM 37.4850 -77.5889 114° Southeast 279 321 3,400 -1,462 Descending Washington Center
Wed 04:32:54 PM 37.4572 -77.5042 112° Southeast 272 313 2,200 -712 Descending Washington Center
Wed 04:33:54 PM 37.4333 -77.4306 112° Southeast 248 285 2,000 -520 Descending Washington Center
Wed 04:35:47 PM 37.4667 -77.3333 67° East 145 167 700 -690 Descending Potomac TRACON

Login

Don't have an account? Register now (free) for customized features, flight alerts, and more!